Time;durP1;ratioP1;P1;durP2;ratioP2;P2;SDS_P1;SDS_P2;PMS_P1;PMS_P2;Temp;Humidity;BMP_temperature;BMP_pressure;BME280_temperature;BME280_humidity;BME280_pressure;Samples;Min_cycle;Max_cycle;Signal;HPM_P1;HPM_P2
2023/01/06 00:02:00;;;;;;;37.08;14.02;;;10.40;99.90;;;;;;5078693;28;20040;-69
2023/01/06 00:04:26;;;;;;;38.47;15.23;;;10.40;99.90;;;;;;5081057;28;20115;-68
2023/01/06 00:06:52;;;;;;;41.33;16.20;;;10.40;99.90;;;;;;5060840;28;20093;-69
2023/01/06 00:09:18;;;;;;;44.17;15.32;;;10.40;99.90;;;;;;5085895;28;20488;-68
2023/01/06 00:11:44;;;;;;;39.47;15.82;;;10.40;99.90;;;;;;5058547;28;20036;-69
2023/01/06 00:14:09;;;;;;;40.30;14.10;;;10.40;99.90;;;;;;5077955;28;20372;-68
2023/01/06 00:16:35;;;;;;;42.42;15.88;;;10.40;99.90;;;;;;5078724;28;20147;-65
2023/01/06 00:19:01;;;;;;;36.30;14.82;;;10.40;99.90;;;;;;5062300;28;20380;-65
2023/01/06 00:21:28;;;;;;;35.60;14.00;;;10.40;99.90;;;;;;5076508;28;20353;-65
2023/01/06 00:23:54;;;;;;;38.15;13.63;;;10.40;99.90;;;;;;5078357;28;20408;-66
2023/01/06 00:26:20;;;;;;;36.53;15.05;;;10.40;99.90;;;;;;5060615;28;20047;-65
2023/01/06 00:28:46;;;;;;;29.38;13.73;;;10.40;99.90;;;;;;5082890;28;20119;-65
2023/01/06 00:31:14;;;;;;;31.58;13.80;;;10.30;99.90;;;;;;5071294;28;20162;-66
2023/01/06 00:33:41;;;;;;;27.33;14.02;;;10.40;99.90;;;;;;5061382;28;20125;-66
2023/01/06 00:36:08;;;;;;;28.40;12.90;;;10.40;99.90;;;;;;5080577;28;20506;-66
2023/01/06 00:38:36;;;;;;;25.73;11.98;;;10.40;99.90;;;;;;5076998;28;20404;-66
2023/01/06 00:43:51;;;;;;;22.27;12.18;;;10.40;99.90;;;;;;5060226;28;20040;-65
2023/01/06 00:46:16;;;;;;;25.17;13.15;;;10.40;99.90;;;;;;5083974;28;20040;-66
2023/01/06 00:48:42;;;;;;;22.10;11.82;;;10.40;99.90;;;;;;5062855;28;20534;-65
2023/01/06 00:51:08;;;;;;;20.17;12.20;;;10.40;99.90;;;;;;5074380;28;20032;-66
2023/01/06 00:53:34;;;;;;;21.77;11.60;;;10.40;99.90;;;;;;5072436;28;20163;-66
2023/01/06 00:56:00;;;;;;;25.58;11.40;;;10.40;99.90;;;;;;5061504;28;20044;-66
2023/01/06 00:58:30;;;;;;;22.13;11.45;;;10.40;99.90;;;;;;5081443;28;20032;-66
2023/01/06 01:00:56;;;;;;;20.25;11.18;;;10.50;99.90;;;;;;5064268;28;20104;-66
2023/01/06 01:03:22;;;;;;;22.13;10.82;;;10.50;99.90;;;;;;5066197;28;20040;-65
2023/01/06 01:05:47;;;;;;;15.95;10.45;;;10.50;99.90;;;;;;5085699;28;20039;-66
2023/01/06 01:08:13;;;;;;;17.92;10.23;;;10.50;99.90;;;;;;5061928;28;20119;-66
2023/01/06 01:10:39;;;;;;;13.32;9.57;;;10.50;99.90;;;;;;5084327;28;20036;-65
2023/01/06 01:13:04;;;;;;;20.85;9.77;;;10.40;99.90;;;;;;5058909;28;20040;-67
2023/01/06 01:15:31;;;;;;;15.32;9.70;;;10.40;99.90;;;;;;5064636;28;20520;-65
2023/01/06 01:17:56;;;;;;;10.93;8.68;;;10.40;99.90;;;;;;5064736;28;20532;-66
2023/01/06 01:20:22;;;;;;;18.13;9.65;;;10.40;99.90;;;;;;5080991;28;20032;-66
2023/01/06 01:22:48;;;;;;;17.08;10.25;;;10.40;99.90;;;;;;5062800;28;20413;-65
2023/01/06 01:25:14;;;;;;;14.50;8.82;;;10.40;99.90;;;;;;5064770;28;20051;-66
2023/01/06 01:27:39;;;;;;;15.70;9.38;;;10.40;99.90;;;;;;5087211;28;20036;-65
2023/01/06 01:30:06;;;;;;;16.90;9.77;;;10.40;99.90;;;;;;5070841;28;20052;-65
2023/01/06 01:32:32;;;;;;;15.30;9.73;;;10.40;99.90;;;;;;5059148;28;20033;-66
2023/01/06 01:34:57;;;;;;;17.17;10.02;;;10.30;99.90;;;;;;5065690;28;20214;-65
2023/01/06 01:37:23;;;;;;;14.40;9.52;;;10.30;99.90;;;;;;5064415;28;20124;-66
2023/01/06 01:39:49;;;;;;;17.67;10.35;;;10.40;99.90;;;;;;5080092;28;20058;-65
2023/01/06 01:42:18;;;;;;;16.80;9.02;;;10.30;99.90;;;;;;5063405;28;20036;-65
2023/01/06 01:45:04;;;;;;;15.13;8.98;;;10.30;99.90;;;;;;5082191;28;20113;-65
2023/01/06 01:47:50;;;;;;;15.93;8.45;;;10.30;99.90;;;;;;5085573;28;20044;-65
2023/01/06 01:50:38;;;;;;;14.95;8.20;;;10.30;99.90;;;;;;5076787;28;20471;-66
2023/01/06 01:53:09;;;;;;;10.88;8.10;;;10.30;99.90;;;;;;5076333;28;20041;-65
2023/01/06 01:55:36;;;;;;;13.10;7.40;;;10.30;99.90;;;;;;5080219;28;20045;-65
2023/01/06 01:58:10;;;;;;;14.07;6.93;;;10.30;99.90;;;;;;5075632;28;20068;-65
2023/01/06 02:00:38;;;;;;;12.00;6.45;;;10.30;99.90;;;;;;5078023;28;20079;-68
2023/01/06 02:03:04;;;;;;;14.63;6.78;;;10.30;99.90;;;;;;5083510;28;20060;-68
2023/01/06 02:05:32;;;;;;;12.52;6.35;;;10.30;99.90;;;;;;5069286;28;20045;-68
2023/01/06 02:08:04;;;;;;;11.35;6.10;;;10.30;99.90;;;;;;5061702;28;20091;-68
2023/01/06 02:10:30;;;;;;;10.10;5.38;;;10.30;99.90;;;;;;5061735;28;20032;-68
2023/01/06 02:12:58;;;;;;;12.48;5.78;;;10.40;99.90;;;;;;5063417;28;20391;-68
2023/01/06 02:15:27;;;;;;;10.50;5.53;;;10.30;99.90;;;;;;5079927;28;20102;-68
2023/01/06 02:18:30;;;;;;;11.02;5.13;;;10.30;99.90;;;;;;5076854;28;20036;-68
2023/01/06 02:21:17;;;;;;;8.57;4.97;;;10.30;99.90;;;;;;5080590;28;20044;-68
2023/01/06 02:23:45;;;;;;;15.35;5.47;;;10.30;99.90;;;;;;5062973;28;20048;-68
2023/01/06 02:27:02;;;;;;;12.10;5.43;;;10.30;99.90;;;;;;5079255;28;20048;-68
2023/01/06 02:29:39;;;;;;;10.38;5.15;;;10.30;99.90;;;;;;5049000;28;20547;-68
2023/01/06 02:32:04;;;;;;;8.60;4.47;;;10.30;99.90;;;;;;5080984;28;20071;-68
2023/01/06 02:34:42;;;;;;;7.82;4.30;;;10.30;99.90;;;;;;5062268;28;20446;-68
2023/01/06 02:37:45;;;;;;;13.07;4.53;;;10.30;99.90;;;;;;5080616;28;20037;-68
2023/01/06 02:40:38;;;;;;;13.18;4.20;;;10.30;99.90;;;;;;5080545;28;20102;-68
2023/01/06 02:43:28;;;;;;;9.18;4.32;;;10.30;99.90;;;;;;5081687;28;20037;-68
2023/01/06 02:46:05;;;;;;;9.73;4.43;;;10.30;99.90;;;;;;5079777;28;20072;-68
2023/01/06 02:48:40;;;;;;;9.38;4.03;;;10.30;99.90;;;;;;5083138;28;20117;-68
2023/01/06 02:51:11;;;;;;;;;;;10.30;99.90;;;;;;5064137;28;20040;-68
2023/01/06 02:53:48;;;;;;;7.65;4.03;;;10.30;99.90;;;;;;5080697;28;19991;-68
2023/01/06 02:56:14;;;;;;;8.32;4.20;;;10.30;99.90;;;;;;5060318;28;20074;-68
2023/01/06 02:58:54;;;;;;;10.50;5.10;;;10.30;99.90;;;;;;5067851;28;20134;-68
2023/01/06 03:01:28;;;;;;;9.60;4.38;;;10.30;99.90;;;;;;5080112;28;20126;-68
2023/01/06 03:03:56;;;;;;;8.25;4.50;;;10.40;99.90;;;;;;5079583;28;20394;-68
2023/01/06 03:06:28;;;;;;;11.55;5.10;;;10.30;99.90;;;;;;5083347;28;20038;-68
2023/01/06 03:08:55;;;;;;;7.68;4.75;;;10.30;99.90;;;;;;5062525;28;20526;-68
2023/01/06 03:11:23;;;;;;;8.93;4.82;;;10.30;99.90;;;;;;5079182;28;20038;-68
2023/01/06 03:13:58;;;;;;;9.93;4.72;;;10.30;99.90;;;;;;5080702;28;20036;-68
2023/01/06 03:16:23;;;;;;;7.60;5.40;;;10.30;99.90;;;;;;5081503;28;20043;-68
2023/01/06 03:18:51;;;;;;;7.88;4.60;;;10.30;99.90;;;;;;5080837;28;20507;-68
2023/01/06 03:21:21;;;;;;;10.13;4.80;;;10.30;99.90;;;;;;5081464;28;20467;-68
2023/01/06 03:23:47;;;;;;;10.02;4.50;;;10.40;99.90;;;;;;5078856;28;20040;-68
2023/01/06 03:26:14;;;;;;;10.38;4.65;;;10.30;99.90;;;;;;5082300;28;20036;-68
2023/01/06 03:28:39;;;;;;;8.35;4.88;;;10.30;99.90;;;;;;5079709;28;20041;-68
2023/01/06 03:31:24;;;;;;;7.88;4.70;;;10.30;99.90;;;;;;5081672;28;20467;-68
2023/01/06 03:34:04;;;;;;;7.90;4.72;;;10.30;99.90;;;;;;5071739;28;20060;-68
2023/01/06 03:36:44;;;;;;;9.07;5.10;;;10.30;99.90;;;;;;5081234;28;20123;-68
2023/01/06 03:39:33;;;;;;;8.85;4.63;;;10.30;99.90;;;;;;5076919;28;20094;-68
2023/01/06 03:44:57;;;;;;;5.68;4.22;;;10.30;99.90;;;;;;5077251;28;20075;-68
2023/01/06 03:47:32;;;;;;;7.63;4.53;;;10.30;99.90;;;;;;5082744;28;20127;-68
2023/01/06 03:50:10;;;;;;;8.68;4.72;;;10.30;99.90;;;;;;5081721;28;20035;-68
2023/01/06 03:52:44;;;;;;;6.10;3.97;;;10.30;99.90;;;;;;5076059;28;20070;-68
2023/01/06 03:55:24;;;;;;;6.05;4.07;;;10.30;99.90;;;;;;5077173;28;20113;-68
2023/01/06 03:57:53;;;;;;;10.10;4.75;;;10.30;99.90;;;;;;5081369;28;20036;-68
2023/01/06 04:00:27;;;;;;;8.57;4.15;;;10.30;99.90;;;;;;5064476;28;20068;-68
2023/01/06 04:02:53;;;;;;;;;;;10.30;99.90;;;;;;5078399;28;20397;-68
2023/01/06 04:05:22;;;;;;;6.53;3.90;;;10.20;99.90;;;;;;5079318;28;19916;-68
2023/01/06 04:07:48;;;;;;;6.03;3.78;;;10.20;99.90;;;;;;5081713;28;20543;-67
2023/01/06 04:10:16;;;;;;;7.88;3.80;;;10.30;99.90;;;;;;5057767;28;20039;-68
2023/01/06 04:12:42;;;;;;;7.72;3.60;;;10.20;99.90;;;;;;5077016;28;20041;-68
2023/01/06 04:15:09;;;;;;;7.25;3.58;;;10.30;99.90;;;;;;5079967;28;20406;-68
2023/01/06 04:17:36;;;;;;;5.70;3.55;;;10.30;99.90;;;;;;5082125;28;20339;-68
2023/01/06 04:20:03;;;;;;;8.20;4.03;;;10.20;99.90;;;;;;5059959;28;20047;-68
2023/01/06 04:22:29;;;;;;;5.72;3.30;;;10.30;99.90;;;;;;5058490;28;20083;-68
2023/01/06 04:24:55;;;;;;;7.22;3.38;;;10.30;99.90;;;;;;5080222;28;20128;-68
2023/01/06 04:27:20;;;;;;;5.15;3.28;;;10.30;99.90;;;;;;5064626;28;20052;-68
2023/01/06 04:29:46;;;;;;;6.65;3.55;;;10.30;99.90;;;;;;5065658;28;20046;-68
2023/01/06 04:32:12;;;;;;;3.95;2.92;;;10.20;99.90;;;;;;5040418;28;20048;-67
2023/01/06 04:34:37;;;;;;;4.72;3.67;;;10.30;99.90;;;;;;5080374;28;20123;-68
2023/01/06 04:37:03;;;;;;;6.18;3.30;;;10.20;99.90;;;;;;5084304;28;20032;-68
2023/01/06 04:39:29;;;;;;;6.13;3.10;;;10.30;99.90;;;;;;5080869;28;20041;-67
2023/01/06 04:41:55;;;;;;;6.40;3.50;;;10.30;99.90;;;;;;5063946;28;20337;-68
2023/01/06 04:44:21;;;;;;;7.85;4.35;;;10.20;99.90;;;;;;5086104;28;20067;-65
2023/01/06 04:46:46;;;;;;;5.68;4.40;;;10.30;99.90;;;;;;5062054;28;20460;-65
2023/01/06 04:49:12;;;;;;;5.50;4.95;;;10.20;99.90;;;;;;5081140;28;20040;-65
2023/01/06 04:51:38;;;;;;;7.85;5.32;;;10.20;99.90;;;;;;5067820;28;20510;-65
2023/01/06 04:54:05;;;;;;;6.93;6.18;;;10.30;99.90;;;;;;5083728;28;20546;-65
2023/01/06 04:56:30;;;;;;;9.15;6.30;;;10.20;99.90;;;;;;5061246;28;20064;-65
2023/01/06 04:58:57;;;;;;;8.20;6.80;;;10.20;99.90;;;;;;5078939;28;20076;-65
2023/01/06 05:01:24;;;;;;;7.50;6.72;;;10.20;99.90;;;;;;5078538;28;20461;-65
2023/01/06 05:03:50;;;;;;;9.38;6.80;;;10.20;99.90;;;;;;5082693;28;20035;-65
2023/01/06 05:06:17;;;;;;;9.90;6.50;;;10.20;99.90;;;;;;5081858;28;20066;-65
2023/01/06 05:08:43;;;;;;;8.73;6.75;;;10.20;99.90;;;;;;5063958;28;20048;-65
2023/01/06 05:11:12;;;;;;;7.85;6.20;;;10.20;99.90;;;;;;5082664;28;20045;-65
2023/01/06 05:13:38;;;;;;;6.40;5.78;;;10.20;99.90;;;;;;5082047;28;20050;-66
2023/01/06 05:16:13;;;;;;;7.05;5.05;;;10.20;99.90;;;;;;5084571;28;20036;-65
2023/01/06 05:18:39;;;;;;;6.18;4.20;;;10.20;99.90;;;;;;5082495;28;20044;-65
2023/01/06 05:21:05;;;;;;;5.43;3.90;;;10.20;99.90;;;;;;5066651;28;20388;-65
2023/01/06 05:23:31;;;;;;;7.55;3.80;;;10.20;99.90;;;;;;5068965;28;20038;-66
2023/01/06 05:25:56;;;;;;;4.18;3.15;;;10.20;99.90;;;;;;5082753;28;20102;-65
2023/01/06 05:28:22;;;;;;;5.38;2.83;;;10.30;99.90;;;;;;5065540;28;20047;-65
2023/01/06 05:30:48;;;;;;;6.15;2.72;;;10.30;99.90;;;;;;5064713;28;20036;-65
2023/01/06 05:33:14;;;;;;;4.13;2.63;;;10.20;99.90;;;;;;5082369;28;20067;-65
2023/01/06 05:35:40;;;;;;;4.85;2.38;;;10.30;99.90;;;;;;5082837;28;20044;-65
2023/01/06 05:38:06;;;;;;;3.63;2.05;;;10.30;99.90;;;;;;5073976;28;20344;-65
2023/01/06 05:40:33;;;;;;;4.70;2.25;;;10.30;99.90;;;;;;5086759;28;20071;-65
2023/01/06 05:42:59;;;;;;;7.40;2.67;;;10.30;99.90;;;;;;5080836;28;20051;-65
2023/01/06 05:45:25;;;;;;;7.10;2.50;;;10.30;99.90;;;;;;5081908;28;20462;-65
2023/01/06 05:47:51;;;;;;;7.18;2.95;;;10.30;99.90;;;;;;5074442;28;20404;-65
2023/01/06 05:50:17;;;;;;;4.30;2.50;;;10.30;99.90;;;;;;5081850;28;20182;-65
2023/01/06 05:52:43;;;;;;;4.88;3.10;;;10.40;99.90;;;;;;5079394;28;20082;-66
2023/01/06 05:55:09;;;;;;;6.28;2.83;;;10.30;99.90;;;;;;5084226;28;20411;-65
2023/01/06 05:57:35;;;;;;;4.32;3.20;;;10.30;99.90;;;;;;5063481;28;20400;-65
2023/01/06 06:00:05;;;;;;;5.40;3.80;;;10.40;99.90;;;;;;5080682;28;20064;-65
2023/01/06 06:02:31;;;;;;;8.18;4.40;;;10.30;99.90;;;;;;5081653;28;20118;-65
2023/01/06 06:04:57;;;;;;;6.45;3.92;;;10.30;99.90;;;;;;5063192;28;20045;-65
2023/01/06 06:07:23;;;;;;;6.20;4.25;;;10.30;99.90;;;;;;5078443;28;20465;-65
2023/01/06 06:09:48;;;;;;;4.00;3.60;;;10.30;99.90;;;;;;5064705;28;20442;-66
2023/01/06 06:12:14;;;;;;;6.95;4.80;;;10.30;99.90;;;;;;5082494;28;20067;-65
2023/01/06 06:14:40;;;;;;;10.52;4.30;;;10.30;99.90;;;;;;5059105;28;20036;-65
2023/01/06 06:17:06;;;;;;;4.72;4.30;;;10.30;99.90;;;;;;5080974;28;20042;-65
2023/01/06 06:19:31;;;;;;;4.68;4.22;;;10.30;99.90;;;;;;5062207;28;20124;-65
2023/01/06 06:21:57;;;;;;;7.93;4.38;;;10.30;99.90;;;;;;5080731;28;20210;-65
2023/01/06 06:24:23;;;;;;;6.47;4.95;;;10.30;99.90;;;;;;5074370;28;20119;-65
2023/01/06 06:26:48;;;;;;;5.40;4.28;;;10.30;99.90;;;;;;5080417;28;20460;-66
2023/01/06 06:29:14;;;;;;;8.55;4.90;;;10.20;99.90;;;;;;5083404;28;20058;-65
2023/01/06 06:31:40;;;;;;;7.43;4.35;;;10.30;99.90;;;;;;5080942;28;20032;-65
2023/01/06 06:34:06;;;;;;;5.10;4.60;;;10.20;99.90;;;;;;5067484;28;21050;-65
2023/01/06 06:36:31;;;;;;;4.90;4.50;;;10.20;99.90;;;;;;5082289;28;20072;-65
2023/01/06 06:38:57;;;;;;;6.90;4.65;;;10.20;99.90;;;;;;5061304;28;20043;-65
2023/01/06 06:41:24;;;;;;;8.27;5.20;;;10.10;99.90;;;;;;5067123;28;20047;-65
2023/01/06 06:43:50;;;;;;;7.30;5.20;;;10.10;99.90;;;;;;5063098;28;20790;-66
2023/01/06 06:46:17;;;;;;;7.93;5.03;;;10.10;99.90;;;;;;5079106;28;20036;-66
2023/01/06 06:48:43;;;;;;;5.97;5.30;;;10.00;99.90;;;;;;5084721;28;20045;-67
2023/01/06 06:51:12;;;;;;;9.05;5.68;;;10.00;99.90;;;;;;5080836;28;20039;-66
2023/01/06 06:53:39;;;;;;;7.72;5.75;;;10.00;99.90;;;;;;5080071;28;20044;-66
2023/01/06 06:56:06;;;;;;;7.32;6.60;;;10.00;99.90;;;;;;5062704;28;20130;-66
2023/01/06 06:58:33;;;;;;;6.95;6.30;;;9.90;99.90;;;;;;5061800;28;20048;-66
2023/01/06 07:01:02;;;;;;;8.80;6.38;;;9.90;99.90;;;;;;5076443;28;20044;-67
2023/01/06 07:03:28;;;;;;;9.10;6.80;;;9.90;99.90;;;;;;5084837;28;20121;-67
2023/01/06 07:05:54;;;;;;;7.22;6.53;;;9.90;99.90;;;;;;5081454;28;20032;-64
2023/01/06 07:08:20;;;;;;;9.68;6.85;;;9.80;99.90;;;;;;5083954;28;20063;-65
2023/01/06 07:10:49;;;;;;;9.90;7.35;;;9.90;99.90;;;;;;5051841;28;20044;-66
2023/01/06 07:13:14;;;;;;;9.15;7.10;;;9.90;99.90;;;;;;5065528;28;20514;-65
2023/01/06 07:15:40;;;;;;;8.02;7.13;;;9.90;99.90;;;;;;5062568;28;20044;-65
2023/01/06 07:18:06;;;;;;;7.53;6.82;;;9.90;99.90;;;;;;5051004;28;20051;-65
2023/01/06 07:20:33;;;;;;;7.35;6.65;;;9.90;99.90;;;;;;5083602;28;20044;-65
2023/01/06 07:22:59;;;;;;;8.07;7.28;;;9.90;99.90;;;;;;5082971;28;20047;-66
2023/01/06 07:25:25;;;;;;;8.02;7.30;;;9.90;99.90;;;;;;5085271;28;20032;-65
2023/01/06 07:28:04;;;;;;;9.15;7.40;;;9.90;99.90;;;;;;5083705;28;20032;-65
2023/01/06 07:30:30;;;;;;;7.57;6.82;;;9.90;99.90;;;;;;5080627;28;20067;-66
2023/01/06 07:32:56;;;;;;;7.07;6.40;;;9.90;99.90;;;;;;5081015;28;20716;-65
2023/01/06 07:35:21;;;;;;;7.28;6.68;;;9.90;99.90;;;;;;5060264;28;20108;-66
2023/01/06 07:37:47;;;;;;;6.38;5.78;;;9.90;99.90;;;;;;5081398;28;20044;-66
2023/01/06 07:40:13;;;;;;;7.32;6.07;;;9.90;99.90;;;;;;5059658;28;20487;-66
2023/01/06 07:42:39;;;;;;;6.93;6.25;;;9.90;99.90;;;;;;5065309;28;20527;-66
2023/01/06 07:45:08;;;;;;;8.07;6.60;;;9.90;99.90;;;;;;5074212;28;20044;-66
2023/01/06 07:47:34;;;;;;;7.35;6.65;;;9.90;99.90;;;;;;5079837;28;20385;-65
2023/01/06 07:49:59;;;;;;;6.90;5.70;;;9.90;99.90;;;;;;5080721;28;20400;-67
2023/01/06 07:52:25;;;;;;;5.95;5.25;;;9.90;99.90;;;;;;5063234;28;20048;-67
2023/01/06 07:54:51;;;;;;;6.97;6.10;;;10.00;99.90;;;;;;5065094;28;20056;-66
2023/01/06 07:57:17;;;;;;;3.78;3.45;;;10.00;99.90;;;;;;5080038;28;20040;-66
2023/01/06 07:59:42;;;;;;;4.57;2.72;;;10.00;99.90;;;;;;5079332;28;20044;-65
2023/01/06 08:02:11;;;;;;;3.13;2.40;;;10.00;99.90;;;;;;5064738;28;20076;-65
2023/01/06 08:04:37;;;;;;;2.33;2.00;;;10.00;99.90;;;;;;5060732;28;20044;-65
2023/01/06 08:07:03;;;;;;;2.75;2.35;;;9.90;99.90;;;;;;5080885;28;20047;-66
2023/01/06 08:09:29;;;;;;;4.40;2.70;;;10.00;99.90;;;;;;5079545;28;20045;-66
2023/01/06 08:11:56;;;;;;;4.93;2.50;;;10.00;99.90;;;;;;5058564;28;20392;-65
2023/01/06 08:14:22;;;;;;;2.67;1.65;;;10.00;99.90;;;;;;5058662;28;20044;-65
2023/01/06 08:16:48;;;;;;;2.67;1.33;;;9.90;99.90;;;;;;5080874;28;20436;-65
2023/01/06 08:19:13;;;;;;;4.85;0.80;;;9.80;99.90;;;;;;5079459;28;20456;-69
2023/01/06 08:21:39;;;;;;;5.50;1.10;;;9.70;99.90;;;;;;5077575;28;20555;-69
2023/01/06 08:24:05;;;;;;;2.20;0.47;;;9.60;99.90;;;;;;5060619;28;20055;-69
2023/01/06 08:26:31;;;;;;;4.03;0.68;;;9.50;99.90;;;;;;5057210;28;20066;-69
2023/01/06 08:28:56;;;;;;;6.18;0.68;;;9.40;99.90;;;;;;5078102;28;20056;-68
2023/01/06 08:31:22;;;;;;;5.35;0.70;;;9.30;99.90;;;;;;5060784;28;20032;-69
2023/01/06 08:33:52;;;;;;;5.65;0.98;;;9.30;99.90;;;;;;5069666;28;20539;-68
2023/01/06 08:36:20;;;;;;;4.40;0.70;;;9.10;99.90;;;;;;5065013;28;20047;-68
2023/01/06 08:38:47;;;;;;;5.15;0.65;;;9.10;99.90;;;;;;5065115;28;20085;-68
2023/01/06 08:41:12;;;;;;;4.60;0.80;;;9.00;99.90;;;;;;5067455;28;20127;-68
2023/01/06 08:43:40;;;;;;;2.70;0.60;;;8.90;99.90;;;;;;5063366;28;20218;-69
2023/01/06 08:46:12;;;;;;;4.90;0.98;;;8.90;99.90;;;;;;5060509;28;20122;-69
2023/01/06 08:48:38;;;;;;;4.70;0.68;;;8.80;99.90;;;;;;5077664;28;20044;-69
2023/01/06 08:51:07;;;;;;;3.95;0.63;;;8.80;99.90;;;;;;5048570;28;20109;-69
2023/01/06 08:53:33;;;;;;;3.72;0.70;;;8.80;99.90;;;;;;5080148;28;20059;-69
2023/01/06 08:55:59;;;;;;;2.15;0.50;;;8.80;99.90;;;;;;5060427;28;20377;-69
2023/01/06 08:58:25;;;;;;;8.30;0.90;;;8.70;99.90;;;;;;5080309;28;20036;-68
2023/01/06 09:00:51;;;;;;;5.80;0.47;;;8.70;99.90;;;;;;5079560;28;20025;-68
2023/01/06 09:03:17;;;;;;;4.30;0.75;;;8.70;99.90;;;;;;5078218;28;20166;-69
2023/01/06 09:05:43;;;;;;;4.95;0.70;;;8.70;99.90;;;;;;5058600;28;20040;-69
2023/01/06 09:08:09;;;;;;;3.97;0.45;;;8.70;99.90;;;;;;5057393;28;20040;-69
2023/01/06 09:10:38;;;;;;;3.35;0.68;;;8.70;99.90;;;;;;5058420;28;20047;-68
2023/01/06 09:13:04;;;;;;;4.18;0.75;;;8.70;99.90;;;;;;5060890;28;20119;-69
2023/01/06 09:15:30;;;;;;;7.10;0.68;;;8.60;99.90;;;;;;5076062;28;20123;-69
2023/01/06 09:17:56;;;;;;;6.80;0.75;;;8.60;99.90;;;;;;5079508;28;20044;-69
2023/01/06 09:20:22;;;;;;;6.85;0.50;;;8.60;99.90;;;;;;5078046;28;20118;-69
2023/01/06 09:22:47;;;;;;;3.60;0.40;;;8.70;99.90;;;;;;5080533;28;20036;-71
2023/01/06 09:25:13;;;;;;;3.58;0.55;;;8.60;99.90;;;;;;5064268;28;20109;-69
2023/01/06 09:27:39;;;;;;;6.30;0.80;;;8.60;99.90;;;;;;5064058;28;20404;-69
2023/01/06 09:30:06;;;;;;;7.30;0.95;;;8.60;99.90;;;;;;5065495;28;20036;-69
2023/01/06 09:32:32;;;;;;;5.22;0.70;;;8.60;99.90;;;;;;5063927;28;20920;-68
2023/01/06 09:34:58;;;;;;;5.80;0.50;;;8.60;99.90;;;;;;5058582;28;20079;-69
2023/01/06 09:37:24;;;;;;;5.57;0.57;;;8.60;99.90;;;;;;5078757;28;20050;-68
2023/01/06 09:39:49;;;;;;;6.47;0.77;;;8.60;99.90;;;;;;5080289;28;20110;-69
2023/01/06 09:42:22;;;;;;;4.47;0.65;;;8.60;99.90;;;;;;5064964;28;20037;-68
2023/01/06 09:44:52;;;;;;;10.70;1.30;;;8.60;99.90;;;;;;5071619;28;20117;-68
2023/01/06 09:47:24;;;;;;;7.60;0.82;;;8.60;99.90;;;;;;5060238;28;20103;-67
2023/01/06 09:50:14;;;;;;;8.05;1.10;;;8.60;99.90;;;;;;5063745;28;20076;-68
2023/01/06 09:52:51;;;;;;;6.93;0.50;;;8.60;99.90;;;;;;5061496;28;20097;-68
2023/01/06 09:55:37;;;;;;;3.35;0.57;;;8.60;99.90;;;;;;5062914;28;20506;-68
2023/01/06 09:58:11;;;;;;;4.80;1.13;;;8.70;99.90;;;;;;5082958;28;20039;-67
2023/01/06 10:00:44;;;;;;;9.77;1.13;;;8.70;99.90;;;;;;5079597;28;20028;-68
2023/01/06 10:03:19;;;;;;;8.20;1.08;;;8.70;99.90;;;;;;5079898;28;20369;-68
2023/01/06 10:06:03;;;;;;;9.57;0.82;;;8.70;99.90;;;;;;5060864;28;20514;-68
2023/01/06 10:09:16;;;;;;;4.72;0.90;;;8.70;99.90;;;;;;5070006;28;20090;-67
2023/01/06 10:11:50;;;;;;;7.97;0.90;;;8.70;99.90;;;;;;4989611;28;20069;-67
2023/01/06 10:14:46;;;;;;;6.33;0.80;;;8.70;99.90;;;;;;4972139;28;20046;-68
2023/01/06 10:17:33;;;;;;;6.35;0.82;;;8.70;99.90;;;;;;5060711;28;20055;-70
2023/01/06 10:20:20;;;;;;;8.65;1.50;;;8.80;99.90;;;;;;5060238;28;20045;-68
2023/01/06 10:23:10;;;;;;;5.38;0.90;;;8.80;99.90;;;;;;5083452;28;20040;-68
2023/01/06 10:25:51;;;;;;;10.75;1.40;;;8.80;99.90;;;;;;5064224;28;20040;-68
2023/01/06 10:28:23;;;;;;;9.60;1.10;;;8.80;99.90;;;;;;5065938;28;20044;-67
2023/01/06 10:30:51;;;;;;;8.00;1.08;;;8.80;99.90;;;;;;5080733;28;20116;-67
2023/01/06 10:33:24;;;;;;;9.32;1.45;;;8.80;99.90;;;;;;5057463;28;20036;-67
2023/01/06 10:35:52;;;;;;;7.72;1.70;;;8.90;99.90;;;;;;5080989;28;20259;-67
2023/01/06 10:38:25;;;;;;;10.63;1.67;;;8.90;99.90;;;;;;5065430;28;20444;-68
2023/01/06 10:40:52;;;;;;;11.85;1.25;;;9.00;99.90;;;;;;5079569;28;20106;-68
2023/01/06 10:43:21;;;;;;;12.60;1.60;;;9.10;99.90;;;;;;5077994;28;20028;-67
2023/01/06 10:45:49;;;;;;;10.95;1.33;;;9.10;99.90;;;;;;5082208;28;20446;-67
2023/01/06 10:48:26;;;;;;;7.43;1.10;;;9.20;99.90;;;;;;5060655;28;20044;-69
2023/01/06 10:50:52;;;;;;;8.27;1.10;;;9.20;99.90;;;;;;5061459;28;20040;-69
2023/01/06 10:53:18;;;;;;;12.18;1.20;;;9.30;99.90;;;;;;5057178;28;20076;-68
2023/01/06 10:55:53;;;;;;;7.30;1.33;;;9.30;99.90;;;;;;5086759;28;20564;-68
2023/01/06 10:58:40;;;;;;;8.75;1.00;;;9.40;99.90;;;;;;5066079;28;20055;-69
2023/01/06 11:01:11;;;;;;;11.35;1.52;;;9.30;99.90;;;;;;5072779;28;20174;-69
2023/01/06 11:03:41;;;;;;;9.70;0.82;;;9.30;99.90;;;;;;5079971;28;20105;-69
2023/01/06 11:06:14;;;;;;;6.85;1.25;;;9.30;99.90;;;;;;5078880;28;20202;-69
2023/01/06 11:08:40;;;;;;;13.40;1.60;;;9.30;99.90;;;;;;5062326;28;20048;-69
2023/01/06 11:11:13;;;;;;;11.68;1.30;;;9.40;99.90;;;;;;5060274;28;20126;-68
2023/01/06 11:13:45;;;;;;;7.28;1.20;;;9.40;99.90;;;;;;5081721;28;20040;-68
2023/01/06 11:16:35;;;;;;;9.57;1.65;;;9.40;99.90;;;;;;5063612;28;20484;-69
2023/01/06 11:19:06;;;;;;;8.73;0.80;;;9.40;99.90;;;;;;5037616;28;20048;-68
2023/01/06 11:21:43;;;;;;;9.25;1.63;;;9.40;99.90;;;;;;5076023;28;20049;-69
2023/01/06 11:24:24;;;;;;;7.40;0.77;;;9.40;99.90;;;;;;5062773;28;20496;-68
2023/01/06 11:26:52;;;;;;;9.13;1.13;;;9.40;99.90;;;;;;5081387;28;20044;-68
2023/01/06 11:29:33;;;;;;;9.70;1.00;;;9.50;99.90;;;;;;5059932;28;20044;-69
2023/01/06 11:32:21;;;;;;;10.25;1.30;;;9.60;99.90;;;;;;5079333;28;20047;-68
2023/01/06 11:34:58;;;;;;;6.78;1.27;;;9.60;99.90;;;;;;5063718;28;20051;-69
2023/01/06 11:37:42;;;;;;;6.45;1.10;;;9.60;99.90;;;;;;5061993;28;20157;-69
2023/01/06 11:40:27;;;;;;;8.02;0.98;;;9.60;99.90;;;;;;5079494;28;20048;-68
2023/01/06 11:42:56;;;;;;;6.47;0.90;;;9.70;99.90;;;;;;5082259;28;20044;-68
2023/01/06 11:45:37;;;;;;;13.18;0.93;;;9.70;99.90;;;;;;5080690;28;20360;-66
2023/01/06 11:48:11;;;;;;;12.10;1.70;;;9.80;99.90;;;;;;5077443;28;20044;-67
2023/01/06 11:50:37;;;;;;;8.13;1.00;;;9.70;99.90;;;;;;5062268;28;20902;-66
2023/01/06 11:53:16;;;;;;;11.07;1.17;;;9.70;99.90;;;;;;5059429;28;20455;-66
2023/01/06 11:55:55;;;;;;;7.95;0.80;;;9.70;99.90;;;;;;5062031;28;20535;-67
2023/01/06 11:58:46;;;;;;;8.60;1.27;;;9.60;99.90;;;;;;5057304;28;20098;-67
2023/01/06 12:01:26;;;;;;;8.75;1.20;;;9.60;99.90;;;;;;5060094;28;20063;-66
2023/01/06 12:03:57;;;;;;;8.55;0.93;;;9.60;99.90;;;;;;5075755;28;20044;-66
2023/01/06 12:06:32;;;;;;;7.70;1.40;;;9.60;99.90;;;;;;5060959;28;20043;-66
2023/01/06 12:09:01;;;;;;;;;;;9.60;99.90;;;;;;5079841;28;20581;-66
2023/01/06 12:11:43;;;;;;;12.00;1.63;;;9.60;99.90;;;;;;5068412;28;19923;-66
2023/01/06 12:14:15;;;;;;;6.65;0.82;;;9.60;99.90;;;;;;5082064;28;20032;-66
2023/01/06 12:16:59;;;;;;;7.72;1.13;;;9.50;99.90;;;;;;5076151;28;20516;-68
2023/01/06 12:19:39;;;;;;;6.45;0.85;;;9.50;99.90;;;;;;5078032;28;20044;-68
2023/01/06 12:22:18;;;;;;;7.38;1.10;;;9.50;99.90;;;;;;5065985;28;20164;-68
2023/01/06 12:24:46;;;;;;;8.20;1.15;;;9.50;99.90;;;;;;5075539;28;20178;-68
2023/01/06 12:27:20;;;;;;;11.48;1.13;;;9.50;99.90;;;;;;5080654;28;20047;-68
2023/01/06 12:29:48;;;;;;;10.80;1.40;;;9.50;99.90;;;;;;5078094;28;20036;-68
2023/01/06 12:32:20;;;;;;;9.95;1.33;;;9.50;99.90;;;;;;5060443;28;20696;-68
2023/01/06 12:34:50;;;;;;;11.68;1.38;;;9.50;99.90;;;;;;5079946;28;20033;-68
2023/01/06 12:37:47;;;;;;;5.88;1.10;;;9.50;99.90;;;;;;5079457;28;20142;-68
2023/01/06 12:40:41;;;;;;;9.77;1.05;;;9.50;99.90;;;;;;5077317;28;20049;-68
2023/01/06 12:43:10;;;;;;;5.68;0.93;;;9.50;99.90;;;;;;5069477;28;20048;-68
2023/01/06 12:45:48;;;;;;;8.52;1.20;;;9.50;99.90;;;;;;5074869;28;20478;-68
2023/01/06 12:48:34;;;;;;;10.55;1.70;;;9.60;99.90;;;;;;5046086;28;20040;-68
2023/01/06 12:51:18;;;;;;;9.43;1.25;;;9.60;99.90;;;;;;5080576;28;20068;-68
2023/01/06 12:53:51;;;;;;;6.47;0.77;;;9.60;99.90;;;;;;5059522;28;20121;-68
2023/01/06 12:56:39;;;;;;;8.10;1.30;;;9.70;99.90;;;;;;5063193;28;20123;-68
2023/01/06 12:59:17;;;;;;;7.57;1.00;;;9.70;99.90;;;;;;5080965;28;20433;-68
2023/01/06 13:01:47;;;;;;;13.95;1.83;;;9.70;99.90;;;;;;5081068;28;20432;-68
2023/01/06 13:04:25;;;;;;;6.82;1.20;;;9.70;99.90;;;;;;5078767;28;20059;-68
2023/01/06 13:07:20;;;;;;;8.98;1.67;;;9.70;99.90;;;;;;5082029;28;20036;-68
2023/01/06 13:10:21;;;;;;;11.48;1.55;;;9.60;99.90;;;;;;5085506;28;20056;-68
2023/01/06 13:13:24;;;;;;;11.48;1.50;;;9.60;99.90;;;;;;5064628;28;20044;-67